sensor_id;sensor_type;location;lat;lon;timestamp;pressure;altitude;pressure_sealevel;temperature;humidity
67803;BME280;72185;51.378;-1.342;2023-11-21T00:02:10;100182.21;;;17.41;37.69
67803;BME280;72185;51.378;-1.342;2023-11-21T00:04:36;100184.77;;;17.26;37.86
67803;BME280;72185;51.378;-1.342;2023-11-21T00:07:01;100188.63;;;17.67;37.62
67803;BME280;72185;51.378;-1.342;2023-11-21T00:09:27;100190.68;;;17.37;37.70
67803;BME280;72185;51.378;-1.342;2023-11-21T00:11:52;100193.75;;;17.16;38.01
67803;BME280;72185;51.378;-1.342;2023-11-21T00:14:18;100200.43;;;17.35;37.75
67803;BME280;72185;51.378;-1.342;2023-11-21T00:16:43;100206.11;;;17.15;38.02
67803;BME280;72185;51.378;-1.342;2023-11-21T00:19:09;100205.71;;;17.30;37.82
67803;BME280;72185;51.378;-1.342;2023-11-21T00:21:34;100204.07;;;17.24;37.87
67803;BME280;72185;51.378;-1.342;2023-11-21T00:24:00;100205.99;;;17.29;37.82
67803;BME280;72185;51.378;-1.342;2023-11-21T00:26:26;100211.43;;;17.18;37.96
67803;BME280;72185;51.378;-1.342;2023-11-21T00:28:51;100214.39;;;17.27;37.82
67803;BME280;72185;51.378;-1.342;2023-11-21T00:31:17;100211.98;;;17.41;37.95
67803;BME280;72185;51.378;-1.342;2023-11-21T00:33:42;100210.79;;;17.24;38.18
67803;BME280;72185;51.378;-1.342;2023-11-21T00:36:09;100213.68;;;17.56;37.75
67803;BME280;72185;51.378;-1.342;2023-11-21T00:38:33;100215.55;;;17.04;38.13
67803;BME280;72185;51.378;-1.342;2023-11-21T00:40:59;100216.98;;;17.23;37.88
67803;BME280;72185;51.378;-1.342;2023-11-21T00:43:25;100217.04;;;17.40;37.64
67803;BME280;72185;51.378;-1.342;2023-11-21T00:45:50;100220.54;;;17.50;37.83
67803;BME280;72185;51.378;-1.342;2023-11-21T00:48:16;100230.72;;;17.48;37.55
67803;BME280;72185;51.378;-1.342;2023-11-21T00:50:41;100228.90;;;17.37;37.65
67803;BME280;72185;51.378;-1.342;2023-11-21T00:53:07;100231.75;;;17.24;37.82
67803;BME280;72185;51.378;-1.342;2023-11-21T00:55:33;100230.03;;;17.41;37.62
67803;BME280;72185;51.378;-1.342;2023-11-21T00:57:58;100229.81;;;17.23;37.86
67803;BME280;72185;51.378;-1.342;2023-11-21T01:00:24;100231.56;;;17.46;37.85
67803;BME280;72185;51.378;-1.342;2023-11-21T01:02:49;100235.16;;;17.66;37.58
67803;BME280;72185;51.378;-1.342;2023-11-21T01:05:15;100234.94;;;17.49;37.85
67803;BME280;72185;51.378;-1.342;2023-11-21T01:07:40;100239.33;;;17.51;37.80
67803;BME280;72185;51.378;-1.342;2023-11-21T01:10:07;100245.90;;;17.39;37.65
67803;BME280;72185;51.378;-1.342;2023-11-21T01:12:32;100249.96;;;16.96;37.94
67803;BME280;72185;51.378;-1.342;2023-11-21T01:14:57;100254.79;;;17.01;38.21
67803;BME280;72185;51.378;-1.342;2023-11-21T01:17:23;100257.10;;;17.22;37.89
67803;BME280;72185;51.378;-1.342;2023-11-21T01:19:48;100256.83;;;17.04;38.14
67803;BME280;72185;51.378;-1.342;2023-11-21T01:22:14;100261.19;;;17.77;37.81
67803;BME280;72185;51.378;-1.342;2023-11-21T01:24:39;100264.49;;;17.47;37.86
67803;BME280;72185;51.378;-1.342;2023-11-21T01:27:05;100271.69;;;17.37;37.99
67803;BME280;72185;51.378;-1.342;2023-11-21T01:29:31;100273.74;;;17.44;37.92
67803;BME280;72185;51.378;-1.342;2023-11-21T01:31:56;100274.93;;;17.57;37.72
67803;BME280;72185;51.378;-1.342;2023-11-21T01:34:22;100277.84;;;17.30;37.78
67803;BME280;72185;51.378;-1.342;2023-11-21T01:36:47;100282.22;;;17.19;38.21
67803;BME280;72185;51.378;-1.342;2023-11-21T01:39:13;100281.25;;;17.60;37.70
67803;BME280;72185;51.378;-1.342;2023-11-21T01:41:38;100285.70;;;17.20;38.20
67803;BME280;72185;51.378;-1.342;2023-11-21T01:44:05;100293.86;;;17.28;37.83
67803;BME280;72185;51.378;-1.342;2023-11-21T01:46:30;100301.59;;;17.39;37.97
67803;BME280;72185;51.378;-1.342;2023-11-21T01:48:55;100303.97;;;17.05;38.13
67803;BME280;72185;51.378;-1.342;2023-11-21T01:51:21;100304.05;;;17.33;37.76
67803;BME280;72185;51.378;-1.342;2023-11-21T01:53:46;100306.15;;;16.91;38.32
67803;BME280;72185;51.378;-1.342;2023-11-21T01:56:12;100306.65;;;17.14;38.01
67803;BME280;72185;51.378;-1.342;2023-11-21T01:58:38;100313.53;;;17.16;37.99
67803;BME280;72185;51.378;-1.342;2023-11-21T02:01:03;100319.75;;;17.41;37.63
67803;BME280;72185;51.378;-1.342;2023-11-21T02:03:29;100324.84;;;17.32;37.75
67803;BME280;72185;51.378;-1.342;2023-11-21T02:05:54;100328.52;;;17.53;37.75
67803;BME280;72185;51.378;-1.342;2023-11-21T02:08:20;100333.31;;;17.57;37.43
67803;BME280;72185;51.378;-1.342;2023-11-21T02:10:46;100333.98;;;17.39;37.64
67803;BME280;72185;51.378;-1.342;2023-11-21T02:13:11;100335.81;;;17.50;37.51
67803;BME280;72185;51.378;-1.342;2023-11-21T02:15:37;100333.83;;;17.33;37.72
67803;BME280;72185;51.378;-1.342;2023-11-21T02:18:02;100334.11;;;17.47;37.53
67803;BME280;72185;51.378;-1.342;2023-11-21T02:20:28;100339.36;;;17.25;37.83
67803;BME280;72185;51.378;-1.342;2023-11-21T02:22:55;100344.78;;;17.15;37.98
67803;BME280;72185;51.378;-1.342;2023-11-21T02:25:19;100346.07;;;17.42;37.61
67803;BME280;72185;51.378;-1.342;2023-11-21T02:27:45;100347.76;;;17.19;37.93
67803;BME280;72185;51.378;-1.342;2023-11-21T02:30:11;100350.16;;;17.26;37.80
67803;BME280;72185;51.378;-1.342;2023-11-21T02:32:36;100356.01;;;17.16;37.97
67803;BME280;72185;51.378;-1.342;2023-11-21T02:35:01;100360.29;;;17.16;37.98
67803;BME280;72185;51.378;-1.342;2023-11-21T02:37:27;100358.77;;;17.01;38.19
67803;BME280;72185;51.378;-1.342;2023-11-21T02:39:53;100360.40;;;17.21;37.91
67803;BME280;72185;51.378;-1.342;2023-11-21T02:42:18;100364.08;;;17.59;37.69
67803;BME280;72185;51.378;-1.342;2023-11-21T02:44:44;100365.76;;;17.36;38.00
67803;BME280;72185;51.378;-1.342;2023-11-21T02:47:09;100369.06;;;17.67;37.94
67803;BME280;72185;51.378;-1.342;2023-11-21T02:49:35;100372.88;;;17.01;38.20
67803;BME280;72185;51.378;-1.342;2023-11-21T02:52:01;100373.88;;;17.77;37.80
67803;BME280;72185;51.378;-1.342;2023-11-21T02:54:26;100375.20;;;17.10;38.05
67803;BME280;72185;51.378;-1.342;2023-11-21T02:56:52;100375.91;;;17.13;38.04
67803;BME280;72185;51.378;-1.342;2023-11-21T02:59:17;100380.75;;;17.17;37.97
67803;BME280;72185;51.378;-1.342;2023-11-21T03:01:43;100379.65;;;17.41;37.94
67803;BME280;72185;51.378;-1.342;2023-11-21T03:04:09;100383.05;;;17.16;37.99
67803;BME280;72185;51.378;-1.342;2023-11-21T03:06:34;100380.36;;;17.32;37.74
67803;BME280;72185;51.378;-1.342;2023-11-21T03:09:00;100380.90;;;17.12;38.02
67803;BME280;72185;51.378;-1.342;2023-11-21T03:11:25;100378.47;;;17.13;38.02
67803;BME280;72185;51.378;-1.342;2023-11-21T03:13:51;100387.87;;;17.08;38.08
67803;BME280;72185;51.378;-1.342;2023-11-21T03:16:16;100392.91;;;17.35;38.04
67803;BME280;72185;51.378;-1.342;2023-11-21T03:18:42;100394.02;;;16.91;38.31
67803;BME280;72185;51.378;-1.342;2023-11-21T03:21:08;100398.21;;;17.77;37.81
67803;BME280;72185;51.378;-1.342;2023-11-21T03:23:33;100399.13;;;17.36;38.02
67803;BME280;72185;51.378;-1.342;2023-11-21T03:25:59;100395.93;;;16.97;38.24
67803;BME280;72185;51.378;-1.342;2023-11-21T03:28:24;100402.19;;;17.01;38.18
67803;BME280;72185;51.378;-1.342;2023-11-21T03:30:50;100406.05;;;17.32;38.09
67803;BME280;72185;51.378;-1.342;2023-11-21T03:33:15;100410.77;;;17.30;38.12
67803;BME280;72185;51.378;-1.342;2023-11-21T03:35:41;100418.48;;;17.28;38.13
67803;BME280;72185;51.378;-1.342;2023-11-21T03:38:07;100421.91;;;17.34;38.05
67803;BME280;72185;51.378;-1.342;2023-11-21T03:40:32;100427.87;;;17.07;38.13
67803;BME280;72185;51.378;-1.342;2023-11-21T03:42:58;100429.52;;;17.29;38.11
67803;BME280;72185;51.378;-1.342;2023-11-21T03:45:23;100428.89;;;17.17;37.97
67803;BME280;72185;51.378;-1.342;2023-11-21T03:47:50;100431.75;;;17.18;37.99
67803;BME280;72185;51.378;-1.342;2023-11-21T03:50:15;100441.82;;;17.03;38.17
67803;BME280;72185;51.378;-1.342;2023-11-21T03:52:40;100444.87;;;16.91;38.32
67803;BME280;72185;51.378;-1.342;2023-11-21T03:55:06;100448.69;;;17.31;38.08
67803;BME280;72185;51.378;-1.342;2023-11-21T03:57:31;100452.70;;;17.05;38.16
67803;BME280;72185;51.378;-1.342;2023-11-21T03:59:57;100456.23;;;17.26;38.18
67803;BME280;72185;51.378;-1.342;2023-11-21T04:02:22;100461.86;;;17.43;37.94
67803;BME280;72185;51.378;-1.342;2023-11-21T04:04:48;100464.07;;;17.08;38.12
67803;BME280;72185;51.378;-1.342;2023-11-21T04:07:14;100466.45;;;17.20;38.24
67803;BME280;72185;51.378;-1.342;2023-11-21T04:09:39;100469.66;;;17.10;38.07
67803;BME280;72185;51.378;-1.342;2023-11-21T04:12:05;100475.57;;;17.25;38.18
67803;BME280;72185;51.378;-1.342;2023-11-21T04:14:30;100476.69;;;17.04;38.16
67803;BME280;72185;51.378;-1.342;2023-11-21T04:16:56;100485.41;;;17.16;38.02
67803;BME280;72185;51.378;-1.342;2023-11-21T04:19:22;100480.45;;;17.10;38.09
67803;BME280;72185;51.378;-1.342;2023-11-21T04:21:47;100487.04;;;17.27;38.15
67803;BME280;72185;51.378;-1.342;2023-11-21T04:24:13;100494.54;;;17.51;38.21
67803;BME280;72185;51.378;-1.342;2023-11-21T04:26:38;100497.96;;;17.13;38.06
67803;BME280;72185;51.378;-1.342;2023-11-21T04:29:04;100496.15;;;17.11;38.11
67803;BME280;72185;51.378;-1.342;2023-11-21T04:31:30;100494.27;;;17.28;38.14
67803;BME280;72185;51.378;-1.342;2023-11-21T04:33:55;100494.10;;;17.34;38.04
67803;BME280;72185;51.378;-1.342;2023-11-21T04:36:21;100495.40;;;17.37;38.01
67803;BME280;72185;51.378;-1.342;2023-11-21T04:38:46;100493.86;;;17.20;38.21
67803;BME280;72185;51.378;-1.342;2023-11-21T04:41:12;100497.59;;;17.30;38.10
67803;BME280;72185;51.378;-1.342;2023-11-21T04:43:37;100497.62;;;17.03;38.16
67803;BME280;72185;51.378;-1.342;2023-11-21T04:46:03;100504.34;;;17.12;38.03
67803;BME280;72185;51.378;-1.342;2023-11-21T04:48:29;100503.72;;;17.37;38.01
67803;BME280;72185;51.378;-1.342;2023-11-21T04:50:54;100510.14;;;17.28;37.84
67803;BME280;72185;51.378;-1.342;2023-11-21T04:53:20;100523.43;;;17.27;38.14
67803;BME280;72185;51.378;-1.342;2023-11-21T04:55:45;100534.47;;;17.12;38.04
67803;BME280;72185;51.378;-1.342;2023-11-21T04:58:11;100537.26;;;17.67;37.97
67803;BME280;72185;51.378;-1.342;2023-11-21T05:00:37;100535.92;;;17.34;38.04
67803;BME280;72185;51.378;-1.342;2023-11-21T05:03:02;100537.72;;;17.32;38.04
67803;BME280;72185;51.378;-1.342;2023-11-21T05:05:28;100548.30;;;17.40;37.96
67803;BME280;72185;51.378;-1.342;2023-11-21T05:07:53;100555.48;;;17.14;37.99
67803;BME280;72185;51.378;-1.342;2023-11-21T05:10:19;100562.36;;;17.41;37.96
67803;BME280;72185;51.378;-1.342;2023-11-21T05:12:45;100564.69;;;17.09;38.02
67803;BME280;72185;51.378;-1.342;2023-11-21T05:15:14;100567.68;;;17.25;38.12
67803;BME280;72185;51.378;-1.342;2023-11-21T05:17:36;100571.72;;;17.31;38.03
67803;BME280;72185;51.378;-1.342;2023-11-21T05:20:02;100572.25;;;17.20;37.90
67803;BME280;72185;51.378;-1.342;2023-11-21T05:22:27;100575.41;;;17.16;37.92
67803;BME280;72185;51.378;-1.342;2023-11-21T05:24:52;100578.47;;;17.18;38.20
67803;BME280;72185;51.378;-1.342;2023-11-21T05:27:18;100583.00;;;17.25;38.09
67803;BME280;72185;51.378;-1.342;2023-11-21T05:29:44;100590.66;;;17.13;37.98
67803;BME280;72185;51.378;-1.342;2023-11-21T05:32:09;100596.00;;;17.41;37.89
67803;BME280;72185;51.378;-1.342;2023-11-21T05:34:35;100597.08;;;17.35;37.97
67803;BME280;72185;51.378;-1.342;2023-11-21T05:37:00;100597.22;;;17.44;37.80
67803;BME280;72185;51.378;-1.342;2023-11-21T05:39:26;100598.09;;;17.13;37.94
67803;BME280;72185;51.378;-1.342;2023-11-21T05:41:51;100598.41;;;17.35;37.94
67803;BME280;72185;51.378;-1.342;2023-11-21T05:44:17;100607.62;;;17.34;37.98
67803;BME280;72185;51.378;-1.342;2023-11-21T05:46:43;100615.87;;;17.49;37.74
67803;BME280;72185;51.378;-1.342;2023-11-21T05:49:08;100623.44;;;16.95;38.15
67803;BME280;72185;51.378;-1.342;2023-11-21T05:51:34;100627.60;;;17.69;37.83
67803;BME280;72185;51.378;-1.342;2023-11-21T05:53:59;100630.15;;;16.95;38.13
67803;BME280;72185;51.378;-1.342;2023-11-21T05:56:25;100633.71;;;16.96;38.15
67803;BME280;72185;51.378;-1.342;2023-11-21T05:58:50;100636.68;;;17.19;37.84
67803;BME280;72185;51.378;-1.342;2023-11-21T06:01:16;100639.12;;;16.93;38.17
67803;BME280;72185;51.378;-1.342;2023-11-21T06:03:42;100639.28;;;17.34;37.91
67803;BME280;72185;51.378;-1.342;2023-11-21T06:06:08;100645.59;;;17.58;37.96
67803;BME280;72185;51.378;-1.342;2023-11-21T06:08:33;100643.23;;;17.22;37.75
67803;BME280;72185;51.378;-1.342;2023-11-21T06:10:58;100647.74;;;17.03;38.00
67803;BME280;72185;51.378;-1.342;2023-11-21T06:13:24;100651.25;;;17.37;37.85
67803;BME280;72185;51.378;-1.342;2023-11-21T06:15:50;100653.87;;;16.95;38.10
67803;BME280;72185;51.378;-1.342;2023-11-21T06:18:15;100654.02;;;17.19;37.78
67803;BME280;72185;51.378;-1.342;2023-11-21T06:20:41;100661.14;;;17.21;38.04
67803;BME280;72185;51.378;-1.342;2023-11-21T06:23:07;100659.51;;;17.02;38.01
67803;BME280;72185;51.378;-1.342;2023-11-21T06:25:32;100656.78;;;17.23;38.01
67803;BME280;72185;51.378;-1.342;2023-11-21T06:27:58;100666.45;;;17.34;37.87
67803;BME280;72185;51.378;-1.342;2023-11-21T06:30:23;100664.53;;;17.28;37.92
67803;BME280;72185;51.378;-1.342;2023-11-21T06:32:49;100668.97;;;17.39;37.80
67803;BME280;72185;51.378;-1.342;2023-11-21T06:35:15;100673.34;;;17.28;37.91
67803;BME280;72185;51.378;-1.342;2023-11-21T06:37:40;100683.18;;;17.12;38.13
67803;BME280;72185;51.378;-1.342;2023-11-21T06:40:07;100684.19;;;17.29;37.92
67803;BME280;72185;51.378;-1.342;2023-11-21T06:42:31;100693.12;;;17.30;37.88
67803;BME280;72185;51.378;-1.342;2023-11-21T06:44:57;100698.51;;;17.37;37.78
67803;BME280;72185;51.378;-1.342;2023-11-21T06:47:23;100698.74;;;17.09;37.83
67803;BME280;72185;51.378;-1.342;2023-11-21T06:49:48;100706.06;;;17.02;37.91
67803;BME280;72185;51.378;-1.342;2023-11-21T06:52:14;100706.55;;;17.29;37.86
67803;BME280;72185;51.378;-1.342;2023-11-21T06:54:39;100709.70;;;17.26;37.90
67803;BME280;72185;51.378;-1.342;2023-11-21T06:57:05;100711.90;;;17.09;37.79
67803;BME280;72185;51.378;-1.342;2023-11-21T06:59:30;100721.68;;;17.52;37.89
67803;BME280;72185;51.378;-1.342;2023-11-21T07:01:56;100730.17;;;17.35;37.75
67803;BME280;72185;51.378;-1.342;2023-11-21T07:04:22;100737.25;;;17.10;37.76
67803;BME280;72185;51.378;-1.342;2023-11-21T07:06:47;100730.38;;;17.40;37.99
67803;BME280;72185;51.378;-1.342;2023-11-21T07:09:13;100740.63;;;17.33;37.74
67803;BME280;72185;51.378;-1.342;2023-11-21T07:11:38;100739.67;;;16.96;37.94
67803;BME280;72185;51.378;-1.342;2023-11-21T07:14:04;100745.26;;;17.13;37.69
67803;BME280;72185;51.378;-1.342;2023-11-21T07:16:29;100748.45;;;17.36;37.70
67803;BME280;72185;51.378;-1.342;2023-11-21T07:18:55;100751.22;;;17.19;37.88
67803;BME280;72185;51.378;-1.342;2023-11-21T07:21:21;100767.06;;;16.93;37.92
67803;BME280;72185;51.378;-1.342;2023-11-21T07:23:46;100774.95;;;17.25;37.81
67803;BME280;72185;51.378;-1.342;2023-11-21T07:26:12;100777.31;;;17.17;37.90
67803;BME280;72185;51.378;-1.342;2023-11-21T07:28:37;100775.45;;;16.90;37.96
67803;BME280;72185;51.378;-1.342;2023-11-21T07:31:03;100773.39;;;17.10;37.97
67803;BME280;72185;51.378;-1.342;2023-11-21T07:33:29;100774.32;;;17.26;37.77
67803;BME280;72185;51.378;-1.342;2023-11-21T07:35:54;100776.65;;;17.50;37.77
67803;BME280;72185;51.378;-1.342;2023-11-21T07:38:20;100778.33;;;17.19;37.83
67803;BME280;72185;51.378;-1.342;2023-11-21T07:40:45;100774.80;;;16.95;37.83
67803;BME280;72185;51.378;-1.342;2023-11-21T07:43:11;100777.55;;;17.00;37.77
67803;BME280;72185;51.378;-1.342;2023-11-21T07:45:37;100777.92;;;17.43;37.86
67803;BME280;72185;51.378;-1.342;2023-11-21T07:48:03;100782.25;;;17.17;37.79
67803;BME280;72185;51.378;-1.342;2023-11-21T07:50:28;100788.40;;;16.95;37.81
67803;BME280;72185;51.378;-1.342;2023-11-21T07:52:53;100793.35;;;16.96;37.80
67803;BME280;72185;51.378;-1.342;2023-11-21T07:55:19;100799.56;;;17.11;37.87
67803;BME280;72185;51.378;-1.342;2023-11-21T07:57:45;100804.01;;;17.09;37.94
67803;BME280;72185;51.378;-1.342;2023-11-21T08:00:11;100806.66;;;17.04;37.93
67803;BME280;72185;51.378;-1.342;2023-11-21T08:02:36;100810.48;;;17.19;37.74
67803;BME280;72185;51.378;-1.342;2023-11-21T08:05:02;100813.41;;;16.96;38.05
67803;BME280;72185;51.378;-1.342;2023-11-21T08:07:27;100817.96;;;16.97;38.05
67803;BME280;72185;51.378;-1.342;2023-11-21T08:09:53;100819.55;;;17.13;37.81
67803;BME280;72185;51.378;-1.342;2023-11-21T08:12:18;100823.40;;;17.49;37.65
67803;BME280;72185;51.378;-1.342;2023-11-21T08:14:44;100828.03;;;17.21;37.67
67803;BME280;72185;51.378;-1.342;2023-11-21T08:17:09;100834.50;;;17.16;37.75
67803;BME280;72185;51.378;-1.342;2023-11-21T08:19:35;100839.61;;;17.23;38.01
67803;BME280;72185;51.378;-1.342;2023-11-21T08:22:01;100840.68;;;16.99;37.69
67803;BME280;72185;51.378;-1.342;2023-11-21T08:24:26;100846.20;;;17.48;37.67
67803;BME280;72185;51.378;-1.342;2023-11-21T08:26:52;100852.35;;;17.41;37.74
67803;BME280;72185;51.378;-1.342;2023-11-21T08:29:17;100847.43;;;17.03;37.91
67803;BME280;72185;51.378;-1.342;2023-11-21T08:31:43;100848.50;;;16.96;38.02
67803;BME280;72185;51.378;-1.342;2023-11-21T08:34:09;100850.65;;;17.44;37.72
67803;BME280;72185;51.378;-1.342;2023-11-21T08:36:34;100854.85;;;17.07;37.93
67803;BME280;72185;51.378;-1.342;2023-11-21T08:39:00;100857.54;;;17.36;37.91
67803;BME280;72185;51.378;-1.342;2023-11-21T08:41:25;100859.86;;;17.11;37.91
67803;BME280;72185;51.378;-1.342;2023-11-21T08:43:51;100865.03;;;16.92;38.16
67803;BME280;72185;51.378;-1.342;2023-11-21T08:46:17;100868.88;;;16.83;38.03
67803;BME280;72185;51.378;-1.342;2023-11-21T08:48:42;100874.48;;;17.29;38.04
67803;BME280;72185;51.378;-1.342;2023-11-21T08:51:10;100878.96;;;17.07;38.04
67803;BME280;72185;51.378;-1.342;2023-11-21T08:53:33;100877.53;;;17.07;38.03
67803;BME280;72185;51.378;-1.342;2023-11-21T08:55:59;100887.91;;;17.05;37.78
67803;BME280;72185;51.378;-1.342;2023-11-21T08:58:25;100889.19;;;17.59;37.34
67803;BME280;72185;51.378;-1.342;2023-11-21T09:00:50;100892.02;;;17.25;37.48
67803;BME280;72185;51.378;-1.342;2023-11-21T09:03:16;100903.71;;;17.30;37.72
67803;BME280;72185;51.378;-1.342;2023-11-21T09:05:41;100907.89;;;17.39;37.64
67803;BME280;72185;51.378;-1.342;2023-11-21T09:08:07;100911.84;;;17.31;37.80
67803;BME280;72185;51.378;-1.342;2023-11-21T09:10:34;100911.78;;;17.30;37.85
67803;BME280;72185;51.378;-1.342;2023-11-21T09:12:58;100917.26;;;17.48;37.68
67803;BME280;72185;51.378;-1.342;2023-11-21T09:15:24;100921.14;;;17.27;37.89
67803;BME280;72185;51.378;-1.342;2023-11-21T09:17:49;100925.35;;;17.45;37.73
67803;BME280;72185;51.378;-1.342;2023-11-21T09:20:15;100927.88;;;17.41;37.83
67803;BME280;72185;51.378;-1.342;2023-11-21T09:22:41;100929.86;;;17.29;37.71
67803;BME280;72185;51.378;-1.342;2023-11-21T09:25:07;100935.11;;;17.48;37.72
67803;BME280;72185;51.378;-1.342;2023-11-21T09:27:32;100934.27;;;17.40;37.94
67803;BME280;72185;51.378;-1.342;2023-11-21T09:29:57;100933.51;;;17.44;37.85
67803;BME280;72185;51.378;-1.342;2023-11-21T09:32:23;100934.04;;;17.12;37.97
67803;BME280;72185;51.378;-1.342;2023-11-21T09:34:49;100931.69;;;17.46;37.86
67803;BME280;72185;51.378;-1.342;2023-11-21T09:37:14;100934.46;;;17.73;37.88
67803;BME280;72185;51.378;-1.342;2023-11-21T09:39:40;100938.77;;;17.41;37.90
67803;BME280;72185;51.378;-1.342;2023-11-21T09:42:10;100936.74;;;17.56;38.15
67803;BME280;72185;51.378;-1.342;2023-11-21T09:44:34;100940.89;;;17.28;37.85
67803;BME280;72185;51.378;-1.342;2023-11-21T09:46:59;100946.27;;;17.27;37.85
67803;BME280;72185;51.378;-1.342;2023-11-21T09:49:23;100952.54;;;17.50;37.84
67803;BME280;72185;51.378;-1.342;2023-11-21T09:51:48;100954.03;;;17.52;37.82
67803;BME280;72185;51.378;-1.342;2023-11-21T09:54:15;100957.29;;;17.26;37.85
67803;BME280;72185;51.378;-1.342;2023-11-21T09:56:39;100966.27;;;17.38;38.01
67803;BME280;72185;51.378;-1.342;2023-11-21T09:59:05;100963.96;;;17.51;37.86
67803;BME280;72185;51.378;-1.342;2023-11-21T10:01:31;100968.21;;;17.53;37.82
67803;BME280;72185;51.378;-1.342;2023-11-21T10:03:56;100975.16;;;17.46;37.97
67803;BME280;72185;51.378;-1.342;2023-11-21T10:06:22;100978.76;;;17.43;37.99
67803;BME280;72185;51.378;-1.342;2023-11-21T10:08:47;100983.03;;;17.47;37.93
67803;BME280;72185;51.378;-1.342;2023-11-21T10:11:15;100983.17;;;17.34;38.15
67803;BME280;72185;51.378;-1.342;2023-11-21T10:13:39;100985.01;;;17.36;38.13
67803;BME280;72185;51.378;-1.342;2023-11-21T10:16:06;100981.37;;;17.39;38.03
67803;BME280;72185;51.378;-1.342;2023-11-21T10:18:29;100984.72;;;17.21;37.99
67803;BME280;72185;51.378;-1.342;2023-11-21T10:20:56;100985.93;;;17.37;38.11
67803;BME280;72185;51.378;-1.342;2023-11-21T10:23:21;100983.37;;;17.35;38.13
67803;BME280;72185;51.378;-1.342;2023-11-21T10:25:46;100982.13;;;17.59;37.80
67803;BME280;72185;51.378;-1.342;2023-11-21T10:28:11;100982.60;;;17.75;37.93
67803;BME280;72185;51.378;-1.342;2023-11-21T10:30:38;100985.10;;;17.50;37.97
67803;BME280;72185;51.378;-1.342;2023-11-21T10:33:04;100987.61;;;17.80;37.93
67803;BME280;72185;51.378;-1.342;2023-11-21T10:37:59;100988.48;;;17.34;37.88
67803;BME280;72185;51.378;-1.342;2023-11-21T10:40:20;100994.13;;;17.25;38.28
67803;BME280;72185;51.378;-1.342;2023-11-21T10:42:45;100996.66;;;17.49;37.97
67803;BME280;72185;51.378;-1.342;2023-11-21T10:45:11;100999.42;;;17.78;37.95
67803;BME280;72185;51.378;-1.342;2023-11-21T10:47:38;101002.23;;;17.89;37.80
67803;BME280;72185;51.378;-1.342;2023-11-21T10:50:02;101003.54;;;17.23;38.02
67803;BME280;72185;51.378;-1.342;2023-11-21T10:52:27;101002.60;;;17.30;37.94
67803;BME280;72185;51.378;-1.342;2023-11-21T10:54:53;101003.39;;;17.63;37.81
67803;BME280;72185;51.378;-1.342;2023-11-21T10:57:20;101007.29;;;17.56;37.92
67803;BME280;72185;51.378;-1.342;2023-11-21T10:59:46;101007.72;;;17.64;37.83
67803;BME280;72185;51.378;-1.342;2023-11-21T11:02:18;101011.68;;;17.31;37.96
67803;BME280;72185;51.378;-1.342;2023-11-21T11:04:36;101010.29;;;17.40;37.88
67803;BME280;72185;51.378;-1.342;2023-11-21T11:07:02;101006.32;;;17.40;38.12
67803;BME280;72185;51.378;-1.342;2023-11-21T11:09:27;100999.69;;;17.68;37.82
67803;BME280;72185;51.378;-1.342;2023-11-21T11:11:52;101001.48;;;17.69;37.75
67803;BME280;72185;51.378;-1.342;2023-11-21T11:14:19;101000.60;;;17.78;37.64
67803;BME280;72185;51.378;-1.342;2023-11-21T11:16:43;101006.62;;;17.46;37.78
67803;BME280;72185;51.378;-1.342;2023-11-21T11:19:09;101006.12;;;17.63;37.90
67803;BME280;72185;51.378;-1.342;2023-11-21T11:21:45;101006.14;;;17.72;37.79
67803;BME280;72185;51.378;-1.342;2023-11-21T11:24:13;101007.37;;;17.70;37.80
67803;BME280;72185;51.378;-1.342;2023-11-21T11:26:32;101009.94;;;17.76;37.73
67803;BME280;72185;51.378;-1.342;2023-11-21T11:28:57;101013.14;;;17.41;37.86
67803;BME280;72185;51.378;-1.342;2023-11-21T11:31:25;101010.11;;;17.50;37.80
67803;BME280;72185;51.378;-1.342;2023-11-21T11:33:46;101010.04;;;17.48;37.80
67803;BME280;72185;51.378;-1.342;2023-11-21T11:36:14;101012.33;;;17.66;37.83
67803;BME280;72185;51.378;-1.342;2023-11-21T11:38:34;101013.81;;;17.43;37.89
67803;BME280;72185;51.378;-1.342;2023-11-21T11:41:02;101020.04;;;17.72;37.83
67803;BME280;72185;51.378;-1.342;2023-11-21T11:43:26;101024.67;;;17.47;37.85
67803;BME280;72185;51.378;-1.342;2023-11-21T11:45:50;101026.65;;;17.75;37.78
67803;BME280;72185;51.378;-1.342;2023-11-21T11:48:16;101030.16;;;17.45;37.84
67803;BME280;72185;51.378;-1.342;2023-11-21T11:53:12;101031.86;;;17.77;37.78
67803;BME280;72185;51.378;-1.342;2023-11-21T11:55:33;101026.59;;;17.75;37.78
67803;BME280;72185;51.378;-1.342;2023-11-21T11:57:58;101027.77;;;17.63;37.64
67803;BME280;72185;51.378;-1.342;2023-11-21T12:00:33;101028.29;;;17.52;37.77
67803;BME280;72185;51.378;-1.342;2023-11-21T12:02:51;101031.14;;;17.73;37.82
67803;BME280;72185;51.378;-1.342;2023-11-21T12:05:16;101032.38;;;17.86;37.69
67803;BME280;72185;51.378;-1.342;2023-11-21T12:07:44;101038.27;;;17.53;37.81
67803;BME280;72185;51.378;-1.342;2023-11-21T12:10:06;101039.93;;;17.82;37.75
67803;BME280;72185;51.378;-1.342;2023-11-21T12:12:32;101049.02;;;17.77;37.77
67803;BME280;72185;51.378;-1.342;2023-11-21T12:14:57;101053.96;;;17.70;37.89
67803;BME280;72185;51.378;-1.342;2023-11-21T12:17:23;101057.92;;;17.78;37.79
67803;BME280;72185;51.378;-1.342;2023-11-21T12:19:48;101061.66;;;17.59;37.78
67803;BME280;72185;51.378;-1.342;2023-11-21T12:22:15;101064.22;;;18.11;37.71
67803;BME280;72185;51.378;-1.342;2023-11-21T12:24:39;101066.30;;;17.58;37.75
67803;BME280;72185;51.378;-1.342;2023-11-21T12:27:05;101069.63;;;17.77;37.83
67803;BME280;72185;51.378;-1.342;2023-11-21T12:29:30;101065.62;;;17.81;37.78
67803;BME280;72185;51.378;-1.342;2023-11-21T12:31:56;101071.54;;;17.68;37.95
67803;BME280;72185;51.378;-1.342;2023-11-21T12:34:22;101077.29;;;17.54;37.87
67803;BME280;72185;51.378;-1.342;2023-11-21T12:36:47;101079.85;;;17.73;37.85